createdAt,value
2022-11-26T00:00:18.508Z,9.57
2022-11-26T00:04:40.166Z,9.35
2022-11-26T00:09:05.111Z,10.45
2022-11-26T00:13:30.637Z,10.13
2022-11-26T00:17:53.722Z,9.80
2022-11-26T00:22:29.001Z,9.32
2022-11-26T00:26:50.679Z,10.32
2022-11-26T00:31:17.151Z,10.27
2022-11-26T00:35:39.063Z,9.82
2022-11-26T00:40:01.917Z,10.23
2022-11-26T00:44:25.748Z,9.23
2022-11-26T00:48:48.185Z,9.70
2022-11-26T00:53:14.911Z,10.15
2022-11-26T00:57:36.992Z,10.07
2022-11-26T01:01:58.779Z,9.88
2022-11-26T01:06:32.728Z,9.57
2022-11-26T01:10:55.713Z,12.20
2022-11-26T01:15:21.668Z,10.38
2022-11-26T01:19:43.611Z,10.77
2022-11-26T01:24:06.308Z,9.60
2022-11-26T01:28:28.100Z,8.98
2022-11-26T01:32:50.362Z,9.18
2022-11-26T01:37:14.158Z,8.23
2022-11-26T01:41:54.364Z,9.77
2022-11-26T01:46:22.601Z,9.88
2022-11-26T01:51:07.226Z,9.25
2022-11-26T01:55:38.765Z,9.13
2022-11-26T02:00:02.136Z,8.93
2022-11-26T02:04:39.524Z,8.82
2022-11-26T02:09:06.436Z,9.07
2022-11-26T02:13:28.394Z,9.65
2022-11-26T02:18:05.457Z,9.52
2022-11-26T02:22:44.625Z,9.07
2022-11-26T02:27:25.816Z,11.15
2022-11-26T02:32:20.134Z,10.73
2022-11-26T02:36:57.518Z,10.32
2022-11-26T02:41:19.726Z,8.98
2022-11-26T02:45:46.533Z,10.15
2022-11-26T02:50:20.358Z,10.13
2022-11-26T02:54:47.260Z,10.35
2022-11-26T02:59:09.170Z,10.25
2022-11-26T03:03:39.518Z,10.05
2022-11-26T03:08:03.237Z,9.90
2022-11-26T03:12:27.067Z,9.57
2022-11-26T03:16:48.704Z,10.77
2022-11-26T03:21:12.087Z,10.77
2022-11-26T03:25:34.932Z,10.52
2022-11-26T03:29:57.287Z,8.27
2022-11-26T03:34:19.104Z,9.05
2022-11-26T03:38:40.903Z,9.77
2022-11-26T03:43:02.862Z,9.40
2022-11-26T03:47:24.984Z,11.05
2022-11-26T03:51:46.950Z,10.20
2022-11-26T03:56:08.823Z,9.00
2022-11-26T04:00:30.686Z,8.43
2022-11-26T04:04:52.655Z,8.38
2022-11-26T04:09:14.664Z,10.30
2022-11-26T04:13:36.596Z,9.95
2022-11-26T04:17:58.479Z,9.43
2022-11-26T04:22:20.429Z,9.32
2022-11-26T04:26:42.403Z,10.45
2022-11-26T04:31:04.164Z,9.85
2022-11-26T04:35:26.056Z,10.27
2022-11-26T04:39:48.060Z,12.88
2022-11-26T04:44:09.894Z,11.98
2022-11-26T04:48:31.789Z,12.70
2022-11-26T04:52:53.832Z,13.40
2022-11-26T04:57:15.612Z,13.07
2022-11-26T05:01:37.778Z,14.63
2022-11-26T05:05:59.788Z,14.48
2022-11-26T05:10:21.711Z,14.90
2022-11-26T05:14:44.107Z,15.57
2022-11-26T05:19:07.392Z,15.30
2022-11-26T05:23:29.149Z,16.33
2022-11-26T05:27:51.012Z,19.00
2022-11-26T05:32:13.588Z,19.25
2022-11-26T05:36:35.465Z,23.95
2022-11-26T05:40:57.247Z,29.23
2022-11-26T05:45:19.296Z,28.70
2022-11-26T05:49:41.338Z,32.03
2022-11-26T05:54:03.388Z,30.95
2022-11-26T05:58:25.794Z,30.75
2022-11-26T06:02:47.999Z,29.60
2022-11-26T06:07:10.332Z,30.67
2022-11-26T06:11:32.178Z,32.70
2022-11-26T06:15:54.249Z,34.53
2022-11-26T06:20:16.106Z,35.72
2022-11-26T06:24:38.160Z,32.15
2022-11-26T06:29:00.118Z,31.95
2022-11-26T06:33:22.224Z,27.83
2022-11-26T06:37:44.474Z,27.73
2022-11-26T06:42:06.307Z,27.98
2022-11-26T06:46:28.652Z,28.33
2022-11-26T06:50:50.735Z,28.25
2022-11-26T06:55:15.828Z,25.58
2022-11-26T06:59:37.821Z,27.13
2022-11-26T07:04:00.689Z,26.33
2022-11-26T07:08:22.715Z,23.63
2022-11-26T07:12:44.375Z,21.67
2022-11-26T07:17:08.088Z,23.00
2022-11-26T07:21:30.411Z,21.02
2022-11-26T07:25:52.182Z,19.70
2022-11-26T07:30:14.920Z,18.40
2022-11-26T07:34:37.415Z,19.70
2022-11-26T07:39:02.379Z,19.95
2022-11-26T07:43:24.212Z,18.20
2022-11-26T07:47:46.177Z,16.33
2022-11-26T07:52:08.086Z,17.80
2022-11-26T07:56:29.916Z,16.00
2022-11-26T08:00:54.632Z,13.82
2022-11-26T08:05:16.872Z,15.35
2022-11-26T08:09:39.191Z,11.48
2022-11-26T08:14:11.088Z,11.50
2022-11-26T08:18:33.391Z,9.77
2022-11-26T08:22:55.307Z,8.68
2022-11-26T08:27:17.922Z,7.97
2022-11-26T08:31:45.759Z,8.07
2022-11-26T08:36:09.662Z,7.88
2022-11-26T08:40:32.712Z,8.65
2022-11-26T08:44:55.334Z,8.77
2022-11-26T08:49:18.639Z,16.73
2022-11-26T08:53:40.750Z,8.73
2022-11-26T08:58:03.006Z,8.68
2022-11-26T09:02:24.687Z,6.90
2022-11-26T09:06:46.692Z,6.80
2022-11-26T09:11:08.582Z,8.63
2022-11-26T09:15:30.844Z,7.22
2022-11-26T09:19:52.467Z,7.68
2022-11-26T09:24:16.469Z,6.85
2022-11-26T09:28:39.629Z,6.22
2022-11-26T09:33:01.670Z,7.40
2022-11-26T09:37:23.667Z,7.10
2022-11-26T09:42:32.934Z,6.80
2022-11-26T09:47:26.321Z,5.90
2022-11-26T09:51:55.316Z,7.13
2022-11-26T09:56:25.241Z,6.28
2022-11-26T10:00:50.268Z,5.95
2022-11-26T10:05:15.910Z,5.40
2022-11-26T10:10:14.254Z,5.25
2022-11-26T10:15:00.148Z,5.25
2022-11-26T10:19:43.394Z,5.53
2022-11-26T10:24:34.980Z,3.97
2022-11-26T10:29:38.530Z,4.88
2022-11-26T10:34:13.618Z,4.35
2022-11-26T10:38:35.412Z,3.80
2022-11-26T10:43:05.994Z,4.57
2022-11-26T10:47:29.930Z,4.60
2022-11-26T10:52:01.831Z,4.28
2022-11-26T10:56:43.848Z,3.90
2022-11-26T11:01:07.135Z,4.35
2022-11-26T11:05:29.474Z,3.83
2022-11-26T11:10:05.855Z,4.20
2022-11-26T11:14:30.635Z,4.10
2022-11-26T11:19:05.857Z,3.95
2022-11-26T11:24:00.174Z,3.90
2022-11-26T11:28:21.045Z,4.00
2022-11-26T11:32:42.921Z,3.85
2022-11-26T11:37:18.659Z,4.10
2022-11-26T11:41:47.699Z,4.72
2022-11-26T11:46:44.011Z,4.55
2022-11-26T11:51:23.978Z,5.82
2022-11-26T11:56:02.238Z,6.20
2022-11-26T12:00:46.774Z,6.10
2022-11-26T12:05:33.643Z,5.93
2022-11-26T12:10:02.830Z,6.10
2022-11-26T12:14:45.544Z,7.35
2022-11-26T12:19:39.485Z,6.68
2022-11-26T12:24:07.137Z,5.95
2022-11-26T12:28:35.848Z,5.63
2022-11-26T12:33:43.822Z,5.78
2022-11-26T12:38:34.908Z,5.65
2022-11-26T12:43:17.211Z,8.82
2022-11-26T12:47:46.534Z,5.53
2022-11-26T12:52:24.376Z,5.15
2022-11-26T12:57:30.117Z,5.32
2022-11-26T13:01:51.863Z,6.53
2022-11-26T13:06:48.099Z,6.20
2022-11-26T13:11:19.701Z,6.55
2022-11-26T13:16:12.609Z,6.53
2022-11-26T13:20:48.182Z,5.55
2022-11-26T13:25:40.930Z,7.13
2022-11-26T13:30:24.066Z,5.63
2022-11-26T13:35:16.779Z,5.95
2022-11-26T13:39:59.926Z,5.65
2022-11-26T13:45:05.995Z,5.43
2022-11-26T13:49:51.018Z,6.35
2022-11-26T13:54:22.036Z,5.57
2022-11-26T13:58:51.975Z,5.80
2022-11-26T14:03:49.063Z,4.95
2022-11-26T14:08:36.079Z,5.03
2022-11-26T14:13:03.935Z,4.60
2022-11-26T14:17:32.492Z,5.47
2022-11-26T14:22:01.026Z,4.75
2022-11-26T14:26:38.306Z,5.00
2022-11-26T14:31:22.773Z,4.53
2022-11-26T14:35:55.666Z,5.03
2022-11-26T14:40:28.270Z,4.50
2022-11-26T14:45:19.855Z,4.50
2022-11-26T14:49:57.108Z,4.75
2022-11-26T14:54:29.485Z,5.35
2022-11-26T14:59:03.091Z,5.57
2022-11-26T15:03:26.575Z,6.00
2022-11-26T15:08:02.208Z,5.95
2022-11-26T15:12:24.142Z,7.95
2022-11-26T15:17:00.610Z,7.65
2022-11-26T15:21:26.250Z,7.97
2022-11-26T15:25:52.018Z,8.60
2022-11-26T15:30:30.083Z,7.88
2022-11-26T15:34:53.058Z,10.00
2022-11-26T15:39:32.063Z,11.23
2022-11-26T15:43:58.987Z,11.55
2022-11-26T15:48:50.354Z,11.57
2022-11-26T15:53:24.289Z,11.88
2022-11-26T15:57:50.785Z,11.25
2022-11-26T16:02:20.952Z,11.45
2022-11-26T16:06:42.956Z,11.48
2022-11-26T16:11:04.761Z,11.50
2022-11-26T16:15:30.054Z,13.07
2022-11-26T16:19:56.659Z,12.70
2022-11-26T16:24:31.698Z,16.27
2022-11-26T16:28:54.126Z,13.52
2022-11-26T16:33:16.116Z,16.90
2022-11-26T16:37:45.129Z,14.38
2022-11-26T16:42:21.450Z,15.32
2022-11-26T16:46:45.134Z,15.30
2022-11-26T16:51:07.063Z,15.23
2022-11-26T16:55:29.061Z,11.93
2022-11-26T16:59:58.147Z,13.80
2022-11-26T17:04:20.051Z,12.75
2022-11-26T17:08:47.932Z,13.18
2022-11-26T17:13:11.558Z,15.43
2022-11-26T17:17:33.378Z,17.13
2022-11-26T17:21:55.305Z,13.20
2022-11-26T17:26:23.166Z,12.93
2022-11-26T17:30:45.567Z,14.48
2022-11-26T17:35:07.924Z,13.85
2022-11-26T17:39:29.459Z,13.63
2022-11-26T17:43:51.474Z,13.20
2022-11-26T17:48:14.450Z,13.85
2022-11-26T17:52:36.333Z,13.77
2022-11-26T17:56:58.307Z,17.33
2022-11-26T18:01:21.044Z,13.88
2022-11-26T18:05:43.136Z,13.80
2022-11-26T18:10:12.874Z,16.15
2022-11-26T18:14:40.190Z,15.30
2022-11-26T18:19:02.208Z,15.23
2022-11-26T18:23:24.273Z,14.30
2022-11-26T18:27:46.353Z,14.27
2022-11-26T18:32:08.359Z,15.02
2022-11-26T18:36:30.576Z,16.35
2022-11-26T18:41:04.998Z,16.27
2022-11-26T18:45:27.146Z,16.45
2022-11-26T18:49:48.987Z,15.40
2022-11-26T18:54:10.990Z,15.10
2022-11-26T18:58:33.095Z,15.77
2022-11-26T19:02:55.185Z,16.17
2022-11-26T19:07:17.088Z,15.70
2022-11-26T19:11:39.060Z,15.77
2022-11-26T19:16:01.069Z,15.18
2022-11-26T19:20:22.933Z,16.70
2022-11-26T19:24:44.902Z,16.90
2022-11-26T19:29:09.147Z,17.13
2022-11-26T19:33:32.888Z,17.95
2022-11-26T19:37:55.379Z,16.92
2022-11-26T19:42:17.293Z,18.00
2022-11-26T19:46:41.395Z,18.67
2022-11-26T19:51:05.943Z,18.60
2022-11-26T19:55:28.576Z,19.65
2022-11-26T19:59:51.419Z,18.08
2022-11-26T20:04:17.395Z,19.58
2022-11-26T20:08:39.532Z,19.67
2022-11-26T20:13:01.713Z,17.95
2022-11-26T20:17:23.528Z,19.67
2022-11-26T20:21:46.087Z,22.80
2022-11-26T20:26:28.268Z,21.70
2022-11-26T20:30:50.829Z,24.23
2022-11-26T20:35:12.802Z,24.08
2022-11-26T20:39:35.008Z,22.25
2022-11-26T20:43:59.291Z,23.48
2022-11-26T20:48:21.197Z,22.38
2022-11-26T20:52:43.413Z,22.25
2022-11-26T20:57:06.884Z,21.75
2022-11-26T21:01:31.514Z,20.75
2022-11-26T21:05:54.096Z,20.48
2022-11-26T21:10:16.483Z,20.20
2022-11-26T21:14:38.225Z,20.40
2022-11-26T21:19:00.924Z,20.55
2022-11-26T21:23:23.046Z,19.98
2022-11-26T21:27:45.037Z,23.95
2022-11-26T21:32:07.093Z,23.27
2022-11-26T21:36:31.963Z,21.88
2022-11-26T21:40:54.160Z,20.30
2022-11-26T21:45:16.100Z,20.65
2022-11-26T21:49:38.135Z,21.00
2022-11-26T21:53:59.938Z,19.33
2022-11-26T21:58:21.899Z,19.45
2022-11-26T22:02:43.889Z,19.42
2022-11-26T22:07:06.865Z,19.10
2022-11-26T22:11:35.791Z,18.80
2022-11-26T22:15:58.090Z,18.95
2022-11-26T22:20:20.453Z,19.65
2022-11-26T22:24:42.363Z,20.85
2022-11-26T22:29:04.986Z,18.77
2022-11-26T22:33:27.408Z,18.52
2022-11-26T22:37:49.563Z,17.52
2022-11-26T22:42:11.434Z,17.38
2022-11-26T22:46:34.404Z,18.55
2022-11-26T22:50:56.510Z,18.13
2022-11-26T22:55:18.610Z,18.98
2022-11-26T22:59:41.035Z,18.33
2022-11-26T23:04:07.246Z,20.33
2022-11-26T23:08:31.209Z,22.33
2022-11-26T23:12:56.981Z,21.17
2022-11-26T23:17:19.027Z,23.42
2022-11-26T23:21:42.954Z,22.98
2022-11-26T23:26:06.896Z,22.83
2022-11-26T23:30:29.251Z,23.08
2022-11-26T23:34:51.184Z,24.38
2022-11-26T23:39:14.161Z,22.77
2022-11-26T23:43:38.515Z,22.45
2022-11-26T23:48:00.482Z,22.60
2022-11-26T23:52:22.582Z,21.63
2022-11-26T23:56:44.736Z,25.58
